sensor_id;sensor_type;location;lat;lon;timestamp;pressure;altitude;pressure_sealevel;temperature;humidity
47592;BME280;33317;33.356;-117.184;2023-06-26T00:02:16;99186.52;;;31.22;23.53
47592;BME280;33317;33.356;-117.184;2023-06-26T00:04:44;99185.44;;;31.01;23.35
47592;BME280;33317;33.356;-117.184;2023-06-26T00:07:13;99183.48;;;31.17;23.26
47592;BME280;33317;33.356;-117.184;2023-06-26T00:09:44;99183.72;;;31.13;23.36
47592;BME280;33317;33.356;-117.184;2023-06-26T00:12:12;99184.80;;;31.04;23.35
47592;BME280;33317;33.356;-117.184;2023-06-26T00:14:40;99177.90;;;31.04;23.38
47592;BME280;33317;33.356;-117.184;2023-06-26T00:17:09;99175.40;;;30.75;23.33
47592;BME280;33317;33.356;-117.184;2023-06-26T00:19:39;99174.15;;;30.89;23.39
47592;BME280;33317;33.356;-117.184;2023-06-26T00:22:08;99173.76;;;30.49;23.85
47592;BME280;33317;33.356;-117.184;2023-06-26T00:24:36;99168.94;;;30.38;23.96
47592;BME280;33317;33.356;-117.184;2023-06-26T00:27:04;99170.42;;;30.22;24.27
47592;BME280;33317;33.356;-117.184;2023-06-26T00:29:33;99163.81;;;29.90;24.91
47592;BME280;33317;33.356;-117.184;2023-06-26T00:32:01;99169.82;;;29.48;25.16
47592;BME280;33317;33.356;-117.184;2023-06-26T00:34:30;99165.37;;;30.09;24.94
47592;BME280;33317;33.356;-117.184;2023-06-26T00:36:58;99164.66;;;29.10;25.57
47592;BME280;33317;33.356;-117.184;2023-06-26T00:39:26;99158.92;;;29.67;25.29
47592;BME280;33317;33.356;-117.184;2023-06-26T00:41:55;99158.58;;;29.55;25.44
47592;BME280;33317;33.356;-117.184;2023-06-26T00:44:23;99156.88;;;29.60;25.56
47592;BME280;33317;33.356;-117.184;2023-06-26T00:46:51;99158.42;;;28.76;26.16
47592;BME280;33317;33.356;-117.184;2023-06-26T00:49:20;99154.27;;;28.85;26.63
47592;BME280;33317;33.356;-117.184;2023-06-26T00:51:48;99148.33;;;29.37;26.18
47592;BME280;33317;33.356;-117.184;2023-06-26T00:54:16;99150.84;;;28.29;26.99
47592;BME280;33317;33.356;-117.184;2023-06-26T00:56:46;99151.73;;;28.70;26.87
47592;BME280;33317;33.356;-117.184;2023-06-26T00:59:15;99150.22;;;27.84;27.68
47592;BME280;33317;33.356;-117.184;2023-06-26T01:01:43;99151.00;;;27.14;28.24
47592;BME280;33317;33.356;-117.184;2023-06-26T01:04:11;99153.38;;;27.87;27.86
47592;BME280;33317;33.356;-117.184;2023-06-26T01:06:40;99147.11;;;27.48;28.03
47592;BME280;33317;33.356;-117.184;2023-06-26T01:09:08;99146.13;;;28.15;27.46
47592;BME280;33317;33.356;-117.184;2023-06-26T01:11:37;99147.31;;;28.39;27.24
47592;BME280;33317;33.356;-117.184;2023-06-26T01:14:05;99147.02;;;27.83;27.57
47592;BME280;33317;33.356;-117.184;2023-06-26T01:16:33;99145.29;;;27.60;28.06
47592;BME280;33317;33.356;-117.184;2023-06-26T01:19:04;99145.90;;;27.46;28.25
47592;BME280;33317;33.356;-117.184;2023-06-26T01:21:35;99142.02;;;27.88;27.86
47592;BME280;33317;33.356;-117.184;2023-06-26T01:24:12;99140.97;;;28.05;27.94
47592;BME280;33317;33.356;-117.184;2023-06-26T01:26:44;99139.68;;;27.34;28.71
47592;BME280;33317;33.356;-117.184;2023-06-26T01:29:13;99143.66;;;27.29;28.55
47592;BME280;33317;33.356;-117.184;2023-06-26T01:31:44;99146.54;;;27.65;28.68
47592;BME280;33317;33.356;-117.184;2023-06-26T01:34:12;99149.29;;;27.75;28.59
47592;BME280;33317;33.356;-117.184;2023-06-26T01:36:42;99150.29;;;27.48;28.60
47592;BME280;33317;33.356;-117.184;2023-06-26T01:39:10;99150.88;;;26.57;29.59
47592;BME280;33317;33.356;-117.184;2023-06-26T01:41:39;99145.87;;;27.38;29.26
47592;BME280;33317;33.356;-117.184;2023-06-26T01:44:17;99143.23;;;28.14;28.27
47592;BME280;33317;33.356;-117.184;2023-06-26T01:46:57;99141.89;;;27.97;28.31
47592;BME280;33317;33.356;-117.184;2023-06-26T01:49:35;99147.96;;;28.60;27.67
47592;BME280;33317;33.356;-117.184;2023-06-26T01:52:12;99148.79;;;28.43;27.91
47592;BME280;33317;33.356;-117.184;2023-06-26T01:54:52;99145.95;;;29.18;27.24
47592;BME280;33317;33.356;-117.184;2023-06-26T01:57:21;99146.84;;;29.79;26.76
47592;BME280;33317;33.356;-117.184;2023-06-26T01:59:53;99150.55;;;29.58;26.39
47592;BME280;33317;33.356;-117.184;2023-06-26T02:02:24;99154.96;;;29.93;26.31
47592;BME280;33317;33.356;-117.184;2023-06-26T02:04:52;99160.61;;;25.78;32.29
47592;BME280;33317;33.356;-117.184;2023-06-26T02:07:20;99154.47;;;24.21;35.06
47592;BME280;33317;33.356;-117.184;2023-06-26T02:09:49;99155.44;;;22.82;37.40
47592;BME280;33317;33.356;-117.184;2023-06-26T02:12:17;99155.87;;;18.73;46.16
47592;BME280;33317;33.356;-117.184;2023-06-26T02:14:45;99160.23;;;19.20;46.22
47592;BME280;33317;33.356;-117.184;2023-06-26T02:17:15;99163.86;;;17.84;49.71
47592;BME280;33317;33.356;-117.184;2023-06-26T02:19:43;99169.37;;;17.08;52.26
47592;BME280;33317;33.356;-117.184;2023-06-26T02:22:11;99170.18;;;15.96;56.69
47592;BME280;33317;33.356;-117.184;2023-06-26T02:24:40;99171.13;;;15.28;60.66
47592;BME280;33317;33.356;-117.184;2023-06-26T02:27:08;99178.62;;;15.60;59.76
47592;BME280;33317;33.356;-117.184;2023-06-26T02:29:36;99181.06;;;16.60;57.14
47592;BME280;33317;33.356;-117.184;2023-06-26T02:32:08;99184.69;;;16.06;57.04
47592;BME280;33317;33.356;-117.184;2023-06-26T02:34:38;99185.76;;;15.76;58.72
47592;BME280;33317;33.356;-117.184;2023-06-26T02:37:07;99186.61;;;16.13;57.69
47592;BME280;33317;33.356;-117.184;2023-06-26T02:39:35;99184.92;;;16.71;56.25
47592;BME280;33317;33.356;-117.184;2023-06-26T02:42:04;99189.03;;;15.20;59.19
47592;BME280;33317;33.356;-117.184;2023-06-26T02:44:32;99189.26;;;15.25;60.61
47592;BME280;33317;33.356;-117.184;2023-06-26T02:47:03;99192.44;;;14.94;62.20
47592;BME280;33317;33.356;-117.184;2023-06-26T02:49:31;99197.88;;;15.04;61.40
47592;BME280;33317;33.356;-117.184;2023-06-26T02:52:02;99197.28;;;15.33;60.86
47592;BME280;33317;33.356;-117.184;2023-06-26T02:54:30;99200.03;;;15.22;61.55
47592;BME280;33317;33.356;-117.184;2023-06-26T02:57:01;99201.06;;;14.85;62.46
47592;BME280;33317;33.356;-117.184;2023-06-26T02:59:30;99204.43;;;14.32;63.72
47592;BME280;33317;33.356;-117.184;2023-06-26T03:01:59;99203.44;;;13.80;65.25
47592;BME280;33317;33.356;-117.184;2023-06-26T03:04:28;99208.34;;;13.75;65.74
47592;BME280;33317;33.356;-117.184;2023-06-26T03:06:56;99207.00;;;13.93;65.71
47592;BME280;33317;33.356;-117.184;2023-06-26T03:09:24;99208.69;;;14.12;64.99
47592;BME280;33317;33.356;-117.184;2023-06-26T03:11:57;99207.33;;;14.06;64.54
47592;BME280;33317;33.356;-117.184;2023-06-26T03:14:26;99211.37;;;13.60;66.22
47592;BME280;33317;33.356;-117.184;2023-06-26T03:16:55;99211.92;;;13.62;67.30
47592;BME280;33317;33.356;-117.184;2023-06-26T03:19:23;99206.81;;;13.42;68.23
47592;BME280;33317;33.356;-117.184;2023-06-26T03:21:52;99210.71;;;13.46;68.46
47592;BME280;33317;33.356;-117.184;2023-06-26T03:24:19;99221.67;;;13.23;68.28
47592;BME280;33317;33.356;-117.184;2023-06-26T03:26:49;99226.61;;;13.79;67.12
47592;BME280;33317;33.356;-117.184;2023-06-26T03:29:17;99230.30;;;13.45;69.11
47592;BME280;33317;33.356;-117.184;2023-06-26T03:31:45;99232.70;;;13.52;68.65
47592;BME280;33317;33.356;-117.184;2023-06-26T03:34:13;99231.35;;;13.64;69.66
47592;BME280;33317;33.356;-117.184;2023-06-26T03:36:42;99233.42;;;13.44;67.67
47592;BME280;33317;33.356;-117.184;2023-06-26T03:39:10;99237.15;;;13.11;68.82
47592;BME280;33317;33.356;-117.184;2023-06-26T03:41:38;99238.30;;;13.45;68.88
47592;BME280;33317;33.356;-117.184;2023-06-26T03:44:07;99237.35;;;13.19;71.73
47592;BME280;33317;33.356;-117.184;2023-06-26T03:46:35;99236.82;;;13.11;71.93
47592;BME280;33317;33.356;-117.184;2023-06-26T03:49:03;99244.46;;;13.22;71.15
47592;BME280;33317;33.356;-117.184;2023-06-26T03:51:32;99248.78;;;13.30;69.77
47592;BME280;33317;33.356;-117.184;2023-06-26T03:54:01;99252.18;;;13.51;68.88
47592;BME280;33317;33.356;-117.184;2023-06-26T03:56:32;99253.35;;;13.27;69.28
47592;BME280;33317;33.356;-117.184;2023-06-26T03:59:01;99256.86;;;13.00;70.03
47592;BME280;33317;33.356;-117.184;2023-06-26T04:01:30;99255.57;;;12.71;71.74
47592;BME280;33317;33.356;-117.184;2023-06-26T04:04:01;99260.14;;;11.98;73.62
47592;BME280;33317;33.356;-117.184;2023-06-26T04:06:29;99262.80;;;12.36;74.45
47592;BME280;33317;33.356;-117.184;2023-06-26T04:08:58;99261.97;;;12.43;75.86
47592;BME280;33317;33.356;-117.184;2023-06-26T04:11:29;99263.92;;;12.46;74.47
47592;BME280;33317;33.356;-117.184;2023-06-26T04:13:58;99265.39;;;12.12;74.99
47592;BME280;33317;33.356;-117.184;2023-06-26T04:16:27;99271.40;;;12.50;74.46
47592;BME280;33317;33.356;-117.184;2023-06-26T04:18:56;99269.65;;;12.90;76.87
47592;BME280;33317;33.356;-117.184;2023-06-26T04:21:25;99272.74;;;13.01;76.20
47592;BME280;33317;33.356;-117.184;2023-06-26T04:23:53;99273.61;;;12.77;74.90
47592;BME280;33317;33.356;-117.184;2023-06-26T04:26:22;99275.91;;;12.88;72.55
47592;BME280;33317;33.356;-117.184;2023-06-26T04:28:51;99277.26;;;12.88;73.71
47592;BME280;33317;33.356;-117.184;2023-06-26T04:31:20;99280.07;;;12.86;73.10
47592;BME280;33317;33.356;-117.184;2023-06-26T04:33:49;99285.01;;;12.54;73.63
47592;BME280;33317;33.356;-117.184;2023-06-26T04:36:17;99289.34;;;12.43;74.62
47592;BME280;33317;33.356;-117.184;2023-06-26T04:38:47;99291.03;;;12.39;74.98
47592;BME280;33317;33.356;-117.184;2023-06-26T04:41:15;99290.51;;;12.50;75.17
47592;BME280;33317;33.356;-117.184;2023-06-26T04:43:43;99292.32;;;12.59;74.76
47592;BME280;33317;33.356;-117.184;2023-06-26T04:46:12;99291.63;;;12.35;73.71
47592;BME280;33317;33.356;-117.184;2023-06-26T04:48:40;99295.00;;;12.20;75.33
47592;BME280;33317;33.356;-117.184;2023-06-26T04:51:08;99294.16;;;11.79;76.33
47592;BME280;33317;33.356;-117.184;2023-06-26T04:53:39;99293.31;;;11.65;76.48
47592;BME280;33317;33.356;-117.184;2023-06-26T04:56:09;99292.77;;;12.21;75.57
47592;BME280;33317;33.356;-117.184;2023-06-26T04:58:37;99293.30;;;12.00;74.82
47592;BME280;33317;33.356;-117.184;2023-06-26T05:01:05;99291.62;;;11.72;75.95
47592;BME280;33317;33.356;-117.184;2023-06-26T05:03:34;99291.85;;;11.84;75.94
47592;BME280;33317;33.356;-117.184;2023-06-26T05:06:02;99287.52;;;11.66;76.11
47592;BME280;33317;33.356;-117.184;2023-06-26T05:08:30;99291.77;;;11.96;75.35
47592;BME280;33317;33.356;-117.184;2023-06-26T05:11:01;99291.20;;;12.46;72.95
47592;BME280;33317;33.356;-117.184;2023-06-26T05:13:30;99297.66;;;11.72;75.36
47592;BME280;33317;33.356;-117.184;2023-06-26T05:15:59;99297.09;;;11.51;77.05
47592;BME280;33317;33.356;-117.184;2023-06-26T05:18:27;99290.74;;;11.60;78.03
47592;BME280;33317;33.356;-117.184;2023-06-26T05:20:57;99293.58;;;11.50;77.73
47592;BME280;33317;33.356;-117.184;2023-06-26T05:23:26;99291.19;;;11.70;76.77
47592;BME280;33317;33.356;-117.184;2023-06-26T05:25:55;99291.33;;;11.00;77.55
47592;BME280;33317;33.356;-117.184;2023-06-26T05:28:24;99286.17;;;11.53;77.89
47592;BME280;33317;33.356;-117.184;2023-06-26T05:30:53;99285.51;;;11.43;78.65
47592;BME280;33317;33.356;-117.184;2023-06-26T05:33:25;99289.42;;;11.29;79.52
47592;BME280;33317;33.356;-117.184;2023-06-26T05:35:55;99288.86;;;11.43;78.23
47592;BME280;33317;33.356;-117.184;2023-06-26T05:38:24;99279.62;;;15.50;64.02
47592;BME280;33317;33.356;-117.184;2023-06-26T05:40:52;99278.74;;;17.86;54.54
47592;BME280;33317;33.356;-117.184;2023-06-26T05:43:21;99279.78;;;19.46;49.18
47592;BME280;33317;33.356;-117.184;2023-06-26T05:45:50;99274.37;;;20.10;46.40
47592;BME280;33317;33.356;-117.184;2023-06-26T05:48:18;99275.57;;;20.97;44.32
47592;BME280;33317;33.356;-117.184;2023-06-26T05:50:47;99272.90;;;21.18;43.34
47592;BME280;33317;33.356;-117.184;2023-06-26T05:53:16;99270.26;;;21.90;41.84
47592;BME280;33317;33.356;-117.184;2023-06-26T05:55:45;99270.80;;;22.35;40.72
47592;BME280;33317;33.356;-117.184;2023-06-26T05:58:15;99275.10;;;22.50;40.00
47592;BME280;33317;33.356;-117.184;2023-06-26T06:00:44;99275.38;;;22.73;39.55
47592;BME280;33317;33.356;-117.184;2023-06-26T06:03:12;99277.26;;;23.16;38.75
47592;BME280;33317;33.356;-117.184;2023-06-26T06:05:41;99274.51;;;23.22;38.54
47592;BME280;33317;33.356;-117.184;2023-06-26T06:08:09;99276.93;;;23.07;38.45
47592;BME280;33317;33.356;-117.184;2023-06-26T06:10:37;99281.43;;;23.36;38.25
47592;BME280;33317;33.356;-117.184;2023-06-26T06:13:05;99276.34;;;23.47;37.97
47592;BME280;33317;33.356;-117.184;2023-06-26T06:15:34;99276.43;;;23.65;37.28
47592;BME280;33317;33.356;-117.184;2023-06-26T06:18:02;99278.73;;;24.11;37.23
47592;BME280;33317;33.356;-117.184;2023-06-26T06:20:31;99282.07;;;23.80;36.99
47592;BME280;33317;33.356;-117.184;2023-06-26T06:22:59;99282.99;;;24.05;36.74
47592;BME280;33317;33.356;-117.184;2023-06-26T06:25:28;99283.98;;;24.05;36.59
47592;BME280;33317;33.356;-117.184;2023-06-26T06:27:56;99281.01;;;24.32;36.47
47592;BME280;33317;33.356;-117.184;2023-06-26T06:30:25;99279.37;;;24.49;36.06
47592;BME280;33317;33.356;-117.184;2023-06-26T06:32:53;99274.25;;;24.47;36.19
47592;BME280;33317;33.356;-117.184;2023-06-26T06:35:21;99271.11;;;24.13;36.48
47592;BME280;33317;33.356;-117.184;2023-06-26T06:37:50;99271.02;;;24.42;36.20
47592;BME280;33317;33.356;-117.184;2023-06-26T06:40:18;99269.10;;;24.59;35.96
47592;BME280;33317;33.356;-117.184;2023-06-26T06:42:46;99267.40;;;24.57;36.02
47592;BME280;33317;33.356;-117.184;2023-06-26T06:45:14;99267.60;;;24.94;35.65
47592;BME280;33317;33.356;-117.184;2023-06-26T06:47:43;99265.57;;;24.60;35.76
47592;BME280;33317;33.356;-117.184;2023-06-26T06:50:11;99267.00;;;24.82;35.55
47592;BME280;33317;33.356;-117.184;2023-06-26T06:52:40;99266.51;;;25.27;35.33
47592;BME280;33317;33.356;-117.184;2023-06-26T06:55:09;99264.55;;;25.08;35.20
47592;BME280;33317;33.356;-117.184;2023-06-26T06:57:38;99265.36;;;25.44;34.79
47592;BME280;33317;33.356;-117.184;2023-06-26T07:00:09;99263.30;;;25.36;34.63
47592;BME280;33317;33.356;-117.184;2023-06-26T07:02:38;99260.66;;;25.47;34.46
47592;BME280;33317;33.356;-117.184;2023-06-26T07:05:07;99259.20;;;25.51;34.51
47592;BME280;33317;33.356;-117.184;2023-06-26T07:07:36;99258.18;;;25.88;34.27
47592;BME280;33317;33.356;-117.184;2023-06-26T07:10:06;99256.58;;;26.00;34.16
47592;BME280;33317;33.356;-117.184;2023-06-26T07:12:35;99257.47;;;25.83;34.32
47592;BME280;33317;33.356;-117.184;2023-06-26T07:15:05;99256.00;;;25.90;34.06
47592;BME280;33317;33.356;-117.184;2023-06-26T07:17:34;99253.14;;;25.83;34.24
47592;BME280;33317;33.356;-117.184;2023-06-26T07:20:03;99250.27;;;25.84;34.53
47592;BME280;33317;33.356;-117.184;2023-06-26T07:22:31;99246.80;;;25.60;34.80
47592;BME280;33317;33.356;-117.184;2023-06-26T07:25:00;99246.93;;;25.60;34.80
47592;BME280;33317;33.356;-117.184;2023-06-26T07:27:28;99249.89;;;25.72;34.32
47592;BME280;33317;33.356;-117.184;2023-06-26T07:29:56;99248.00;;;25.75;34.24
47592;BME280;33317;33.356;-117.184;2023-06-26T07:32:24;99246.03;;;25.56;34.40
47592;BME280;33317;33.356;-117.184;2023-06-26T07:34:53;99250.89;;;25.46;34.46
47592;BME280;33317;33.356;-117.184;2023-06-26T07:37:21;99251.02;;;25.70;34.49
47592;BME280;33317;33.356;-117.184;2023-06-26T07:39:50;99254.26;;;25.83;34.26
47592;BME280;33317;33.356;-117.184;2023-06-26T07:42:18;99250.93;;;25.57;34.27
47592;BME280;33317;33.356;-117.184;2023-06-26T07:44:46;99251.77;;;25.21;34.73
47592;BME280;33317;33.356;-117.184;2023-06-26T07:47:15;99248.60;;;25.58;34.53
47592;BME280;33317;33.356;-117.184;2023-06-26T07:49:43;99246.95;;;25.38;34.74
47592;BME280;33317;33.356;-117.184;2023-06-26T07:52:11;99247.59;;;25.39;34.77
47592;BME280;33317;33.356;-117.184;2023-06-26T07:54:40;99243.99;;;25.53;34.37
47592;BME280;33317;33.356;-117.184;2023-06-26T07:57:08;99243.79;;;25.70;34.15
47592;BME280;33317;33.356;-117.184;2023-06-26T07:59:36;99240.14;;;25.64;34.10
47592;BME280;33317;33.356;-117.184;2023-06-26T08:02:05;99241.85;;;25.72;33.99
47592;BME280;33317;33.356;-117.184;2023-06-26T08:04:33;99242.03;;;25.78;33.86
47592;BME280;33317;33.356;-117.184;2023-06-26T08:07:02;99239.83;;;25.99;33.87
47592;BME280;33317;33.356;-117.184;2023-06-26T08:09:30;99237.54;;;25.81;33.89
47592;BME280;33317;33.356;-117.184;2023-06-26T08:11:59;99241.86;;;25.85;33.71
47592;BME280;33317;33.356;-117.184;2023-06-26T08:14:27;99239.89;;;25.95;33.57
47592;BME280;33317;33.356;-117.184;2023-06-26T08:16:55;99236.10;;;25.97;33.51
47592;BME280;33317;33.356;-117.184;2023-06-26T08:19:24;99235.20;;;25.92;33.58
47592;BME280;33317;33.356;-117.184;2023-06-26T08:21:52;99236.26;;;25.79;33.73
47592;BME280;33317;33.356;-117.184;2023-06-26T08:24:21;99235.48;;;25.84;33.71
47592;BME280;33317;33.356;-117.184;2023-06-26T08:26:49;99234.03;;;25.44;34.24
47592;BME280;33317;33.356;-117.184;2023-06-26T08:29:17;99234.17;;;25.51;34.19
47592;BME280;33317;33.356;-117.184;2023-06-26T08:31:46;99236.17;;;25.67;34.00
47592;BME280;33317;33.356;-117.184;2023-06-26T08:34:14;99235.27;;;25.65;34.27
47592;BME280;33317;33.356;-117.184;2023-06-26T08:36:42;99236.62;;;25.64;34.29
47592;BME280;33317;33.356;-117.184;2023-06-26T08:39:11;99237.27;;;25.58;34.11
47592;BME280;33317;33.356;-117.184;2023-06-26T08:41:39;99231.75;;;25.26;34.46
47592;BME280;33317;33.356;-117.184;2023-06-26T08:44:08;99230.10;;;25.10;34.59
47592;BME280;33317;33.356;-117.184;2023-06-26T08:46:36;99229.03;;;25.28;34.43
47592;BME280;33317;33.356;-117.184;2023-06-26T08:49:11;99229.54;;;24.98;34.77
47592;BME280;33317;33.356;-117.184;2023-06-26T08:51:44;99227.23;;;25.29;34.69
47592;BME280;33317;33.356;-117.184;2023-06-26T08:54:16;99225.23;;;25.10;34.66
47592;BME280;33317;33.356;-117.184;2023-06-26T08:56:47;99229.05;;;25.25;34.46
47592;BME280;33317;33.356;-117.184;2023-06-26T08:59:17;99231.38;;;25.15;34.78
47592;BME280;33317;33.356;-117.184;2023-06-26T09:01:46;99229.68;;;25.29;34.63
47592;BME280;33317;33.356;-117.184;2023-06-26T09:04:14;99226.60;;;24.72;35.04
47592;BME280;33317;33.356;-117.184;2023-06-26T09:06:42;99224.21;;;24.89;34.79
47592;BME280;33317;33.356;-117.184;2023-06-26T09:09:12;99221.61;;;25.78;33.99
47592;BME280;33317;33.356;-117.184;2023-06-26T09:11:40;99218.09;;;25.47;34.20
47592;BME280;33317;33.356;-117.184;2023-06-26T09:14:08;99215.82;;;25.54;34.10
47592;BME280;33317;33.356;-117.184;2023-06-26T09:16:41;99213.81;;;25.44;33.94
47592;BME280;33317;33.356;-117.184;2023-06-26T09:19:10;99208.07;;;25.32;34.08
47592;BME280;33317;33.356;-117.184;2023-06-26T09:21:39;99207.00;;;25.51;33.82
47592;BME280;33317;33.356;-117.184;2023-06-26T09:24:08;99209.31;;;25.46;33.86
47592;BME280;33317;33.356;-117.184;2023-06-26T09:26:39;99210.44;;;25.40;33.89
47592;BME280;33317;33.356;-117.184;2023-06-26T09:29:08;99208.53;;;25.63;33.61
47592;BME280;33317;33.356;-117.184;2023-06-26T09:31:37;99210.42;;;25.29;33.98
47592;BME280;33317;33.356;-117.184;2023-06-26T09:34:06;99210.84;;;25.46;33.87
47592;BME280;33317;33.356;-117.184;2023-06-26T09:36:34;99210.25;;;25.61;34.01
47592;BME280;33317;33.356;-117.184;2023-06-26T09:39:03;99211.93;;;24.76;34.85
47592;BME280;33317;33.356;-117.184;2023-06-26T09:41:32;99207.11;;;24.87;34.93
47592;BME280;33317;33.356;-117.184;2023-06-26T09:44:03;99210.97;;;25.58;34.14
47592;BME280;33317;33.356;-117.184;2023-06-26T09:46:32;99213.55;;;25.69;33.96
47592;BME280;33317;33.356;-117.184;2023-06-26T09:49:03;99210.94;;;25.16;34.33
47592;BME280;33317;33.356;-117.184;2023-06-26T09:51:32;99209.57;;;25.45;34.21
47592;BME280;33317;33.356;-117.184;2023-06-26T09:54:01;99209.20;;;25.15;34.35
47592;BME280;33317;33.356;-117.184;2023-06-26T09:56:31;99214.80;;;25.41;34.04
47592;BME280;33317;33.356;-117.184;2023-06-26T09:59:02;99213.18;;;25.39;34.33
47592;BME280;33317;33.356;-117.184;2023-06-26T10:01:32;99213.13;;;25.62;34.00
47592;BME280;33317;33.356;-117.184;2023-06-26T10:04:00;99214.80;;;25.21;34.24
47592;BME280;33317;33.356;-117.184;2023-06-26T10:06:32;99216.70;;;25.41;34.21
47592;BME280;33317;33.356;-117.184;2023-06-26T10:09:02;99215.16;;;25.21;34.22
47592;BME280;33317;33.356;-117.184;2023-06-26T10:11:36;99217.12;;;25.29;34.09
47592;BME280;33317;33.356;-117.184;2023-06-26T10:14:07;99214.31;;;25.27;34.11
47592;BME280;33317;33.356;-117.184;2023-06-26T10:16:36;99215.69;;;25.53;33.80
47592;BME280;33317;33.356;-117.184;2023-06-26T10:19:08;99215.09;;;25.55;33.73
47592;BME280;33317;33.356;-117.184;2023-06-26T10:21:38;99212.40;;;25.62;33.86
47592;BME280;33317;33.356;-117.184;2023-06-26T10:24:09;99210.70;;;25.65;33.57
47592;BME280;33317;33.356;-117.184;2023-06-26T10:26:42;99208.02;;;25.58;33.85
47592;BME280;33317;33.356;-117.184;2023-06-26T10:29:13;99207.57;;;25.47;33.75
47592;BME280;33317;33.356;-117.184;2023-06-26T10:31:45;99209.82;;;25.49;33.94
47592;BME280;33317;33.356;-117.184;2023-06-26T10:34:14;99211.09;;;25.23;34.01
47592;BME280;33317;33.356;-117.184;2023-06-26T10:36:43;99210.91;;;25.51;33.99
47592;BME280;33317;33.356;-117.184;2023-06-26T10:39:11;99209.29;;;25.38;34.13
47592;BME280;33317;33.356;-117.184;2023-06-26T10:41:40;99206.23;;;24.94;34.37
47592;BME280;33317;33.356;-117.184;2023-06-26T10:44:11;99203.53;;;25.45;34.02
47592;BME280;33317;33.356;-117.184;2023-06-26T10:46:55;99206.55;;;25.31;34.25
47592;BME280;33317;33.356;-117.184;2023-06-26T10:49:27;99212.72;;;25.15;34.19
47592;BME280;33317;33.356;-117.184;2023-06-26T10:52:01;99213.15;;;24.89;34.49
47592;BME280;33317;33.356;-117.184;2023-06-26T10:54:31;99214.56;;;24.98;34.36
47592;BME280;33317;33.356;-117.184;2023-06-26T10:56:59;99214.50;;;24.73;34.71
47592;BME280;33317;33.356;-117.184;2023-06-26T10:59:31;99217.91;;;25.31;34.53
47592;BME280;33317;33.356;-117.184;2023-06-26T11:02:00;99219.00;;;25.37;34.18
47592;BME280;33317;33.356;-117.184;2023-06-26T11:04:39;99221.31;;;25.18;34.37
47592;BME280;33317;33.356;-117.184;2023-06-26T11:07:24;99218.40;;;25.39;34.14
47592;BME280;33317;33.356;-117.184;2023-06-26T11:09:55;99217.85;;;25.32;34.21
47592;BME280;33317;33.356;-117.184;2023-06-26T11:12:40;99219.82;;;25.06;34.26
47592;BME280;33317;33.356;-117.184;2023-06-26T11:15:10;99218.14;;;25.37;34.13
47592;BME280;33317;33.356;-117.184;2023-06-26T11:17:40;99213.46;;;24.89;34.68
47592;BME280;33317;33.356;-117.184;2023-06-26T11:20:10;99212.87;;;24.82;34.53
47592;BME280;33317;33.356;-117.184;2023-06-26T11:22:41;99212.82;;;25.09;34.81
47592;BME280;33317;33.356;-117.184;2023-06-26T11:25:11;99211.72;;;25.07;34.45
47592;BME280;33317;33.356;-117.184;2023-06-26T11:27:40;99206.11;;;24.70;34.70
47592;BME280;33317;33.356;-117.184;2023-06-26T11:30:10;99196.62;;;25.08;34.48
47592;BME280;33317;33.356;-117.184;2023-06-26T11:32:39;99197.86;;;25.00;34.52
47592;BME280;33317;33.356;-117.184;2023-06-26T11:35:08;99195.81;;;25.27;34.49
47592;BME280;33317;33.356;-117.184;2023-06-26T11:37:36;99193.83;;;24.95;34.53
47592;BME280;33317;33.356;-117.184;2023-06-26T11:40:17;99193.76;;;24.97;34.54
47592;BME280;33317;33.356;-117.184;2023-06-26T11:42:46;99192.12;;;24.96;34.55
47592;BME280;33317;33.356;-117.184;2023-06-26T11:45:14;99189.72;;;25.04;34.46
47592;BME280;33317;33.356;-117.184;2023-06-26T11:47:43;99191.47;;;24.90;34.60
47592;BME280;33317;33.356;-117.184;2023-06-26T11:50:16;99192.83;;;25.42;34.31
47592;BME280;33317;33.356;-117.184;2023-06-26T11:52:44;99197.00;;;25.05;34.36
47592;BME280;33317;33.356;-117.184;2023-06-26T11:55:12;99200.18;;;25.20;34.15
47592;BME280;33317;33.356;-117.184;2023-06-26T11:57:41;99203.80;;;25.13;34.32
47592;BME280;33317;33.356;-117.184;2023-06-26T12:00:13;99202.72;;;25.17;34.24
47592;BME280;33317;33.356;-117.184;2023-06-26T12:02:43;99202.87;;;24.87;34.37
47592;BME280;33317;33.356;-117.184;2023-06-26T12:05:13;99198.81;;;24.61;34.62
47592;BME280;33317;33.356;-117.184;2023-06-26T12:07:42;99195.62;;;24.75;34.44
47592;BME280;33317;33.356;-117.184;2023-06-26T12:10:11;99199.88;;;24.76;34.70
47592;BME280;33317;33.356;-117.184;2023-06-26T12:12:40;99202.15;;;24.67;34.84
47592;BME280;33317;33.356;-117.184;2023-06-26T12:15:12;99204.86;;;24.63;34.91
47592;BME280;33317;33.356;-117.184;2023-06-26T12:17:41;99204.92;;;24.50;35.07
47592;BME280;33317;33.356;-117.184;2023-06-26T12:20:18;99203.40;;;24.81;34.65
47592;BME280;33317;33.356;-117.184;2023-06-26T12:22:47;99206.27;;;24.32;34.94
47592;BME280;33317;33.356;-117.184;2023-06-26T12:25:21;99202.35;;;24.85;34.54
47592;BME280;33317;33.356;-117.184;2023-06-26T12:27:50;99202.99;;;24.75;34.64
47592;BME280;33317;33.356;-117.184;2023-06-26T12:30:18;99201.29;;;24.60;34.88
47592;BME280;33317;33.356;-117.184;2023-06-26T12:32:47;99201.88;;;24.34;35.15
47592;BME280;33317;33.356;-117.184;2023-06-26T12:35:15;99204.27;;;24.57;35.25
47592;BME280;33317;33.356;-117.184;2023-06-26T12:37:44;99202.87;;;24.65;35.12
47592;BME280;33317;33.356;-117.184;2023-06-26T12:40:20;99204.48;;;24.77;34.92
47592;BME280;33317;33.356;-117.184;2023-06-26T12:42:48;99207.19;;;24.73;34.95